Sarcobatus Flat, Nevada Weather observations

Data are for observation ending at time listed.
 Day   Time    Ave.   Ave.  Ave.  Vector   Max.   Stn.    Total    Solar   Ave.  
  of    of     Air    Rel.  Wind   Wind    Wind   Baro.  Precip.   Rad.    Soil  
Year   Day     Temp.  Hum.  Speed  Dir.    Gust   Pres.                    Temp. 
2016   (PST)    F      %     mph   deg.    mph     mb.     in.     W/m2     F   
------------------------------------------------------------------------------
 205    1:20   72.4    11    6.6   342      8.5   879.4    0.00       0    999.0
 205    1:30   75.9    10    8.4   337     13.8   879.5    0.00       0    999.0
 205    1:40   77.5    10    7.9   334     12.3   879.6    0.00       0    999.0
 205    1:50   76.6    10    7.5   323     10.5   879.6    0.00       0    999.0
 205    2:00   75.5    10    6.1   324      9.3   879.5    0.00       0    999.0
 205    2:10   73.2    11    5.6   331      7.5   879.5    0.00       0    999.0
 205    2:20   74.0    10    6.2   343     11.1   879.6    0.00       0    999.0
 205    2:30   77.3     9    7.1   342      9.5   879.5    0.00       0    999.0
 205    2:40   76.9     9    6.5   345     13.1   879.6    0.00       0    999.0
 205    2:50   78.7     9    8.4   339     14.0   879.5    0.00       0    999.0
 205    3:00   77.1     9    7.2   324     10.7   879.5    0.00       0    999.0
 205    3:10   75.1    10    4.7   329      8.8   879.5    0.00       0    999.0
 205    3:20   72.3    10    5.3   318      7.8   879.5    0.00       0    999.0
 205    3:30   71.5    10    6.1   329      9.4   879.5    0.00       0    999.0
 205    3:40   71.0    11    4.4   332      6.4   879.5    0.00       0    999.0
 205    3:50   70.8    11    4.5   341      6.8   879.5    0.00       0    999.0
 205    4:00   69.4    11    4.6   323      6.5   879.6    0.00       0    999.0
 205    4:10   71.8    10    5.8   330      9.7   879.7    0.00       0    999.0
 205    4:20   71.0    11    5.0   333      7.0   879.8    0.00       0    999.0
 205    4:30   70.0    11    2.9    12      5.2   879.9    0.00       0    999.0
 205    4:40   70.9    11    2.9     1      6.2   880.0    0.00       1    999.0
 205    4:50   72.6    10    1.5   337      3.4   880.0    0.00       4    999.0
 205    5:00   70.6    11    3.0   314      5.2   880.1    0.00       8    999.0
 205    5:10   68.9    11    4.3   334      5.9   880.0    0.00      13    999.0
 205    5:20   66.9    12    4.6   320      8.2   880.1    0.00      46    999.0
 205    5:30   70.2    11    5.1   317      6.4   880.2    0.00      95    999.0
 205    5:40   71.1    11    5.1   317      7.6   880.3    0.00     122    999.0
 205    5:50   72.4    10    6.0   314      8.2   880.4    0.00     153    999.0
 205    6:00   74.0    10    5.6   322      8.0   880.5    0.00     183    999.0
 205    6:10   74.6    10    6.2   334      9.5   880.5    0.00     215    999.0
 205    6:20   75.9    10    5.8   342      7.7   880.5    0.00     249    999.0
 205    6:30   77.8    10    3.4    14      6.0   880.6    0.00     282    999.0
 205    6:40   79.5     9    5.8   346     10.2   880.7    0.00     317    999.0
 205    6:50   81.7     8    9.4   330     13.4   880.6    0.00     352    999.0
 205    7:00   82.7     8    8.9   326     12.2   880.6    0.00     387    999.0
 205    7:10   83.2     8    8.3   337     10.8   880.5    0.00     421    999.0
 205    7:20   84.0     8    9.2   328     11.8   880.5    0.00     456    999.0
 205    7:30   85.1     8    8.0   324     13.5   880.4    0.00     491    999.0
 205    7:40   85.8     7    6.6   333     10.1   880.3    0.00     525    999.0
 205    7:50   86.8     7    7.6   325     11.8   880.2    0.00     558    999.0
 205    8:00   87.0     7    9.0   308     12.1   880.2    0.00     588    999.0
 205    8:10   87.7     7    8.0   310     12.5   880.1    0.00     619    999.0
 205    8:20   88.1     7    7.6   308     11.7   880.0    0.00     650    999.0
 205    8:30   89.0     7    6.8   313     14.5   880.0    0.00     680    999.0
 205    8:40   89.7     7    5.2   304     11.0   880.0    0.00     709    999.0
 205    8:50   90.3     7    3.9   306     10.5   879.9    0.00     738    999.0
 205    9:00   91.6     6    4.3   317     10.1   879.8    0.00     767    999.0
 205    9:10   91.2     7    5.7   344     12.0   879.8    0.00     794    999.0
 205    9:20   91.7     6    3.6   245      8.8   879.7    0.00     824    999.0
 205    9:30   92.7     6    4.4     0      9.3   879.6    0.00     848    999.0
 205    9:40   93.3     6    6.5   328     11.0   879.5    0.00     867    999.0
 205    9:50   93.3     6    5.1   340      9.1   879.4    0.00     890    999.0
 205   10:00   94.2     6    2.6    38      6.6   879.4    0.00     911    999.0
 205   10:10   95.1     6    2.0    42      4.9   879.2    0.00     933    999.0
 205   10:20   95.6     6    3.5    27      7.9   879.1    0.00     949    999.0
 205   10:30   95.3     6    3.2     1      9.9   879.0    0.00     964    999.0
 205   10:40   95.3     6    3.7   357      7.7   878.8    0.00     977    999.0
 205   10:50   96.5     6    5.3   241      8.6   878.7    0.00     991    999.0
 205   11:00   96.9     6    5.1   287     10.4   878.5    0.00    1002    999.0
 205   11:10   96.5     6    4.8   337      9.1   878.3    0.00    1010    999.0
 205   11:20   97.7     6    6.6   250     10.4   878.2    0.00    1017    999.0
 205   11:30   97.6     6    3.6   211      6.3   878.1    0.00    1028    999.0
 205   11:40   98.1     6    3.9   310     10.5   877.9    0.00    1039    999.0
 205   11:50   98.8     6    3.1   228     11.4   877.7    0.00    1040    999.0
 205   12:00   98.9     6    5.6   174     13.8   877.7    0.00    1039    999.0
 205   12:10   99.1     6    6.4   185     11.7   877.7    0.00    1038    999.0
 205   12:20   99.4     6    4.7   236     11.3   877.7    0.00    1038    999.0
 205   12:30   99.2     6    7.7   199     13.0   877.6    0.00    1029    999.0
 205   12:40   99.5     6    7.0   151     12.5   877.4    0.00    1022    999.0
 205   12:50   99.9     6    3.4   161     10.3   877.2    0.00    1016    999.0
 205   13:00  101.1     6    7.0   193     14.8   877.1    0.00    1005    999.0
 205   13:10  100.9     6    6.9   211     14.1   876.9    0.00     996    999.0
 205   13:20  101.5     6    7.6   176     19.0   876.8    0.00     983    999.0
 205   13:30  100.7     6    6.6   141     16.1   876.6    0.00     967    999.0
 205   13:40  101.9     6    8.8   238     15.6   876.4    0.00     953    999.0
 205   13:50  101.4     6    5.7   292     15.8   876.1    0.00     936    999.0
 205   14:00  102.5     6    6.5   240     12.5   875.9    0.00     913    999.0
 205   14:10  102.6     6    4.3   237      9.8   875.9    0.00     891    999.0
 205   14:20  102.9     6    6.3   166     15.5   875.7    0.00     867    999.0
 205   14:30  102.8     6    8.2   192     15.7   875.7    0.00     842    999.0
 205   14:40  102.9     6    7.0   157     14.6   875.3    0.00     816    999.0
 205   14:50  103.3     6    7.3   229     13.6   875.1    0.00     795    999.0
 205   15:00  103.6     6    7.8   183     13.2   875.2    0.00     766    999.0
 205   15:10  104.0     6    8.9   202     14.8   874.9    0.00     738    999.0
 205   15:20  103.0     6    7.0   188     17.1   874.8    0.00     713    999.0
 205   15:30  103.4     6    8.5   192     15.9   874.7    0.00     659    999.0
 205   15:40  103.7     6   14.6   163     25.4   874.5    0.00     620    999.0
 205   15:50  103.2     6   17.4   154     23.2   874.4    0.00     595    999.0
 205   16:00  102.2     6   15.6   149     22.9   874.4    0.00     560    999.0
 205   16:10  102.6     6   14.1   146     19.6   874.4    0.00     528    999.0
 205   16:20  102.5     6   12.6   155     21.0   874.3    0.00     492    999.0
 205   16:30  102.2     6   10.7   150     18.0   874.3    0.00     460    999.0
 205   16:40  102.3     6   11.8   157     20.0   874.3    0.00     435    999.0
 205   16:50  102.9     6    8.1   171     16.0   874.2    0.00     403    999.0
 205   17:00  102.7     6    7.6   183     23.5   874.0    0.00     371    999.0
 205   17:10  102.4     6   12.1   161     18.8   874.0    0.00     336    999.0
 205   17:20  102.4     6   10.6   179     17.7   874.0    0.00     306    999.0
 205   17:30  101.1     7   14.8   151     20.1   873.9    0.00     270    999.0
 205   17:40  100.8     7   13.8   143     20.4   873.9    0.00     237    999.0
 205   17:50  100.7     7    9.3   175     18.0   874.0    0.00     205    999.0
 205   18:00  100.9     7    6.7   223     12.7   874.0    0.00     169    999.0
 205   18:10  100.4     7    5.9   243     11.1   874.0    0.00     129    999.0
 205   18:20  100.4     7    3.0   207      6.1   874.1    0.00      44    999.0
 205   18:30   99.4     7    4.9   188      9.1   874.2    0.00      29    999.0
 205   18:40   98.3     8    4.1   172      9.6   874.3    0.00      29    999.0
 205   18:50   96.5     8    9.9   150     19.1   874.5    0.00      32    999.0
 205   19:00   94.7     8    9.5   142     17.8   874.6    0.00      10    999.0
 205   19:10   94.5     8    6.4   162     11.3   874.8    0.00       4    999.0
 205   19:20   93.0     9    8.5   146     13.4   874.9    0.00       1    999.0
 205   19:30   91.9     9    8.4   140     11.5   875.0    0.00       0    999.0
 205   19:40   91.2     9    9.2   136     11.4   875.1    0.00       0    999.0
 205   19:50   90.1    10    8.9   126     11.0   875.2    0.00       0    999.0
 205   20:00   88.6    10    7.7   128      9.5   875.4    0.00       0    999.0
 205   20:10   87.9    10    6.8   128      8.7   875.6    0.00       0    999.0
 205   20:20   88.3    10    6.2   131      8.8   875.7    0.00       0    999.0
 205   20:30   88.2    10    5.5   126      8.1   875.8    0.00       0    999.0
 205   20:40   86.6    11    2.6   118      5.1   876.0    0.00       0    999.0
 205   20:50   84.5    11    2.7   324      7.1   876.3    0.00       0    999.0
 205   21:00   82.5    11    5.4   324      7.4   876.6    0.00       0    999.0
 205   21:10   81.9    11    3.0   315      6.1   876.6    0.00       0    999.0
 205   21:20   81.1    12    2.3   355      3.4   876.7    0.00       0    999.0
 205   21:30   81.1    12    1.7   325      3.1   876.7    0.00       0    999.0
 205   21:40   80.2    12    3.2   281      7.3   876.7    0.00       0    999.0
 205   21:50   80.9     9    3.4   282      7.7   876.7    0.00       0    999.0
 205   22:00   80.0     9    2.3   360      5.7   876.8    0.00       0    999.0
 205   22:10   79.2     9    5.1   311      7.8   876.8    0.00       0    999.0
 205   22:20   78.1    10    4.9   356      8.8   876.9    0.00       0    999.0
 205   22:30   78.9    11    4.9    10      8.2   876.9    0.00       0    999.0
 205   22:40   78.7    11    7.1   318     12.6   877.1    0.00       0    999.0
 205   22:50   80.2     9   10.0   315     13.3   877.2    0.00       0    999.0
 205   23:00   81.6     7    9.3   336     12.7   877.3    0.00       0    999.0
 205   23:10   81.4     7    9.5   328     13.2   877.3    0.00       0    999.0
 205   23:20   80.4     7    8.7   332     10.8   877.3    0.00       0    999.0
 205   23:30   78.6     8    6.7   342      9.5   877.3    0.00       0    999.0
 205   23:40   76.7     8    6.6   342      7.9   877.3    0.00       0    999.0
 205   23:50   77.1     8    7.1   328      8.3   877.3    0.00       0    999.0
 206    0:00   77.5     8    8.0   314     10.5   877.2    0.00       0    999.0
 206    0:10   78.7     7    7.4   324      9.6   877.2    0.00       0    999.0
 206    0:20   75.8     8    7.7   338      9.7   877.1    0.00       0    999.0
 206    0:30   75.3     8    8.2   340     10.1   877.1    0.00       0    999.0
 206    0:40   76.1     8    6.7   352      9.3   877.1    0.00       0    999.0
 206    0:50   76.0     8    3.9   343      5.3   877.1    0.00       0    999.0
 206    1:00   74.8     8    5.4   308      8.0   877.2    0.00       0    999.0
 206    1:10   76.2     8    8.2   309      9.7   877.2    0.00       0    999.0

Return to Sarcobatus Flat, Nevada graphs page.


Western Regional Climate Center,wrcc@dri.edu